sensor_id;sensor_type;location;lat;lon;timestamp;P1;durP1;ratioP1;P2;durP2;ratioP2
25327;SDS011;13279;51.300;12.394;2023-04-24T00:00:20;5.43;;;2.17;;
25327;SDS011;13279;51.300;12.394;2023-04-24T00:02:47;2.70;;;2.50;;
25327;SDS011;13279;51.300;12.394;2023-04-24T00:05:18;3.00;;;2.00;;
25327;SDS011;13279;51.300;12.394;2023-04-24T00:07:45;2.10;;;1.70;;
25327;SDS011;13279;51.300;12.394;2023-04-24T00:10:13;4.03;;;1.40;;
25327;SDS011;13279;51.300;12.394;2023-04-24T00:12:40;1.70;;;1.60;;
25327;SDS011;13279;51.300;12.394;2023-04-24T00:15:08;2.20;;;1.70;;
25327;SDS011;13279;51.300;12.394;2023-04-24T00:17:36;1.50;;;1.40;;
25327;SDS011;13279;51.300;12.394;2023-04-24T00:20:04;1.60;;;1.50;;
25327;SDS011;13279;51.300;12.394;2023-04-24T00:22:33;1.60;;;1.50;;
25327;SDS011;13279;51.300;12.394;2023-04-24T00:25:01;2.27;;;1.37;;
25327;SDS011;13279;51.300;12.394;2023-04-24T00:27:28;5.23;;;1.43;;
25327;SDS011;13279;51.300;12.394;2023-04-24T00:29:56;1.57;;;1.47;;
25327;SDS011;13279;51.300;12.394;2023-04-24T00:32:23;5.13;;;1.70;;
25327;SDS011;13279;51.300;12.394;2023-04-24T00:34:50;1.60;;;1.50;;
25327;SDS011;13279;51.300;12.394;2023-04-24T00:37:18;2.43;;;1.70;;
25327;SDS011;13279;51.300;12.394;2023-04-24T00:39:47;2.97;;;1.60;;
25327;SDS011;13279;51.300;12.394;2023-04-24T00:42:14;1.27;;;1.27;;
25327;SDS011;13279;51.300;12.394;2023-04-24T00:44:42;3.10;;;1.87;;
25327;SDS011;13279;51.300;12.394;2023-04-24T00:47:10;1.50;;;1.40;;
25327;SDS011;13279;51.300;12.394;2023-04-24T00:49:38;1.90;;;1.70;;
25327;SDS011;13279;51.300;12.394;2023-04-24T00:52:06;1.53;;;1.43;;
25327;SDS011;13279;51.300;12.394;2023-04-24T00:54:34;1.53;;;1.43;;
25327;SDS011;13279;51.300;12.394;2023-04-24T00:57:03;1.60;;;1.50;;
25327;SDS011;13279;51.300;12.394;2023-04-24T00:59:31;1.37;;;1.27;;
25327;SDS011;13279;51.300;12.394;2023-04-24T01:01:59;4.43;;;1.70;;
25327;SDS011;13279;51.300;12.394;2023-04-24T01:04:26;2.20;;;1.60;;
25327;SDS011;13279;51.300;12.394;2023-04-24T01:06:54;4.27;;;1.63;;
25327;SDS011;13279;51.300;12.394;2023-04-24T01:09:22;1.30;;;1.20;;
25327;SDS011;13279;51.300;12.394;2023-04-24T01:11:50;1.63;;;1.40;;
25327;SDS011;13279;51.300;12.394;2023-04-24T01:14:19;2.20;;;1.57;;
25327;SDS011;13279;51.300;12.394;2023-04-24T01:16:48;1.20;;;1.10;;
25327;SDS011;13279;51.300;12.394;2023-04-24T01:19:16;1.53;;;1.30;;
25327;SDS011;13279;51.300;12.394;2023-04-24T01:21:45;4.63;;;1.20;;
25327;SDS011;13279;51.300;12.394;2023-04-24T01:24:18;1.40;;;1.30;;
25327;SDS011;13279;51.300;12.394;2023-04-24T01:26:46;1.50;;;1.40;;
25327;SDS011;13279;51.300;12.394;2023-04-24T01:29:14;1.33;;;1.23;;
25327;SDS011;13279;51.300;12.394;2023-04-24T01:31:42;2.00;;;1.20;;
25327;SDS011;13279;51.300;12.394;2023-04-24T01:34:10;1.63;;;1.20;;
25327;SDS011;13279;51.300;12.394;2023-04-24T01:36:37;2.67;;;1.20;;
25327;SDS011;13279;51.300;12.394;2023-04-24T01:39:05;2.83;;;1.13;;
25327;SDS011;13279;51.300;12.394;2023-04-24T01:41:34;1.33;;;1.20;;
25327;SDS011;13279;51.300;12.394;2023-04-24T01:44:01;1.10;;;1.00;;
25327;SDS011;13279;51.300;12.394;2023-04-24T01:46:29;1.27;;;1.00;;
25327;SDS011;13279;51.300;12.394;2023-04-24T01:48:58;1.03;;;0.90;;
25327;SDS011;13279;51.300;12.394;2023-04-24T01:51:26;2.57;;;1.40;;
25327;SDS011;13279;51.300;12.394;2023-04-24T01:53:55;1.37;;;1.03;;
25327;SDS011;13279;51.300;12.394;2023-04-24T01:56:23;4.57;;;1.03;;
25327;SDS011;13279;51.300;12.394;2023-04-24T01:58:53;1.00;;;1.00;;
25327;SDS011;13279;51.300;12.394;2023-04-24T02:01:23;4.80;;;1.30;;
25327;SDS011;13279;51.300;12.394;2023-04-24T02:03:51;1.17;;;1.17;;
25327;SDS011;13279;51.300;12.394;2023-04-24T02:06:18;3.03;;;1.40;;
25327;SDS011;13279;51.300;12.394;2023-04-24T02:08:46;1.50;;;1.40;;
25327;SDS011;13279;51.300;12.394;2023-04-24T02:11:13;1.70;;;1.57;;
25327;SDS011;13279;51.300;12.394;2023-04-24T02:13:41;2.60;;;1.10;;
25327;SDS011;13279;51.300;12.394;2023-04-24T02:16:09;1.40;;;1.30;;
25327;SDS011;13279;51.300;12.394;2023-04-24T02:18:37;1.10;;;1.10;;
25327;SDS011;13279;51.300;12.394;2023-04-24T02:21:04;1.10;;;1.00;;
25327;SDS011;13279;51.300;12.394;2023-04-24T02:23:32;1.73;;;1.13;;
25327;SDS011;13279;51.300;12.394;2023-04-24T02:25:59;2.40;;;1.20;;
25327;SDS011;13279;51.300;12.394;2023-04-24T02:28:27;2.27;;;1.30;;
25327;SDS011;13279;51.300;12.394;2023-04-24T02:30:54;1.23;;;1.13;;
25327;SDS011;13279;51.300;12.394;2023-04-24T02:33:23;1.33;;;1.30;;
25327;SDS011;13279;51.300;12.394;2023-04-24T02:35:51;3.17;;;1.30;;
25327;SDS011;13279;51.300;12.394;2023-04-24T02:38:18;1.90;;;1.27;;
25327;SDS011;13279;51.300;12.394;2023-04-24T02:40:45;1.77;;;1.20;;
25327;SDS011;13279;51.300;12.394;2023-04-24T02:43:13;4.87;;;1.40;;
25327;SDS011;13279;51.300;12.394;2023-04-24T02:45:40;1.83;;;1.37;;
25327;SDS011;13279;51.300;12.394;2023-04-24T02:48:08;1.07;;;0.97;;
25327;SDS011;13279;51.300;12.394;2023-04-24T02:50:36;2.10;;;1.30;;
25327;SDS011;13279;51.300;12.394;2023-04-24T02:53:04;4.17;;;1.40;;
25327;SDS011;13279;51.300;12.394;2023-04-24T02:55:31;2.73;;;1.50;;
25327;SDS011;13279;51.300;12.394;2023-04-24T02:57:59;1.73;;;1.60;;
25327;SDS011;13279;51.300;12.394;2023-04-24T03:00:26;4.83;;;0.90;;
25327;SDS011;13279;51.300;12.394;2023-04-24T03:02:53;1.67;;;1.13;;
25327;SDS011;13279;51.300;12.394;2023-04-24T03:05:21;1.23;;;0.97;;
25327;SDS011;13279;51.300;12.394;2023-04-24T03:07:50;0.90;;;0.90;;
25327;SDS011;13279;51.300;12.394;2023-04-24T03:10:20;1.30;;;1.20;;
25327;SDS011;13279;51.300;12.394;2023-04-24T03:12:49;2.40;;;1.30;;
25327;SDS011;13279;51.300;12.394;2023-04-24T03:15:17;2.33;;;1.17;;
25327;SDS011;13279;51.300;12.394;2023-04-24T03:17:45;2.57;;;1.37;;
25327;SDS011;13279;51.300;12.394;2023-04-24T03:20:13;1.60;;;1.50;;
25327;SDS011;13279;51.300;12.394;2023-04-24T03:22:41;2.27;;;1.37;;
25327;SDS011;13279;51.300;12.394;2023-04-24T03:25:10;1.60;;;1.50;;
25327;SDS011;13279;51.300;12.394;2023-04-24T03:27:38;2.73;;;1.20;;
25327;SDS011;13279;51.300;12.394;2023-04-24T03:30:32;1.40;;;1.30;;
25327;SDS011;13279;51.300;12.394;2023-04-24T03:33:02;0.97;;;0.97;;
25327;SDS011;13279;51.300;12.394;2023-04-24T03:35:35;1.70;;;1.60;;
25327;SDS011;13279;51.300;12.394;2023-04-24T03:38:07;2.43;;;1.17;;
25327;SDS011;13279;51.300;12.394;2023-04-24T03:40:42;1.50;;;1.40;;
25327;SDS011;13279;51.300;12.394;2023-04-24T03:43:27;11.20;;;1.93;;
25327;SDS011;13279;51.300;12.394;2023-04-24T03:45:57;0.93;;;0.93;;
25327;SDS011;13279;51.300;12.394;2023-04-24T03:48:26;4.23;;;1.53;;
25327;SDS011;13279;51.300;12.394;2023-04-24T03:50:56;2.77;;;1.17;;
25327;SDS011;13279;51.300;12.394;2023-04-24T03:53:24;1.93;;;1.80;;
25327;SDS011;13279;51.300;12.394;2023-04-24T03:55:54;1.50;;;1.07;;
25327;SDS011;13279;51.300;12.394;2023-04-24T03:58:23;2.10;;;1.00;;
25327;SDS011;13279;51.300;12.394;2023-04-24T04:00:52;1.00;;;0.90;;
25327;SDS011;13279;51.300;12.394;2023-04-24T04:03:48;3.50;;;1.20;;
25327;SDS011;13279;51.300;12.394;2023-04-24T04:06:19;2.07;;;1.43;;
25327;SDS011;13279;51.300;12.394;2023-04-24T04:08:49;1.13;;;0.97;;
25327;SDS011;13279;51.300;12.394;2023-04-24T04:11:17;4.07;;;1.20;;
25327;SDS011;13279;51.300;12.394;2023-04-24T04:13:45;2.77;;;1.30;;
25327;SDS011;13279;51.300;12.394;2023-04-24T04:16:15;1.60;;;1.00;;
25327;SDS011;13279;51.300;12.394;2023-04-24T04:18:44;2.00;;;0.90;;
25327;SDS011;13279;51.300;12.394;2023-04-24T04:21:12;3.70;;;1.30;;
25327;SDS011;13279;51.300;12.394;2023-04-24T04:23:40;1.37;;;1.17;;
25327;SDS011;13279;51.300;12.394;2023-04-24T04:26:21;3.90;;;1.37;;
25327;SDS011;13279;51.300;12.394;2023-04-24T04:29:01;2.27;;;1.20;;
25327;SDS011;13279;51.300;12.394;2023-04-24T04:31:30;1.07;;;0.97;;
25327;SDS011;13279;51.300;12.394;2023-04-24T04:34:01;1.43;;;1.33;;
25327;SDS011;13279;51.300;12.394;2023-04-24T04:36:31;1.87;;;1.10;;
25327;SDS011;13279;51.300;12.394;2023-04-24T04:39:16;0.97;;;0.97;;
25327;SDS011;13279;51.300;12.394;2023-04-24T04:41:53;1.77;;;1.43;;
25327;SDS011;13279;51.300;12.394;2023-04-24T04:44:26;2.73;;;1.40;;
25327;SDS011;13279;51.300;12.394;2023-04-24T04:46:57;7.00;;;1.17;;
25327;SDS011;13279;51.300;12.394;2023-04-24T04:49:31;1.33;;;1.20;;
25327;SDS011;13279;51.300;12.394;2023-04-24T04:52:00;1.40;;;1.30;;
25327;SDS011;13279;51.300;12.394;2023-04-24T04:54:28;1.33;;;1.30;;
25327;SDS011;13279;51.300;12.394;2023-04-24T04:56:57;1.30;;;1.20;;
25327;SDS011;13279;51.300;12.394;2023-04-24T04:59:26;1.60;;;1.50;;
25327;SDS011;13279;51.300;12.394;2023-04-24T05:02:00;1.47;;;1.37;;
25327;SDS011;13279;51.300;12.394;2023-04-24T05:04:29;2.13;;;1.37;;
25327;SDS011;13279;51.300;12.394;2023-04-24T05:06:57;3.23;;;1.37;;
25327;SDS011;13279;51.300;12.394;2023-04-24T05:09:28;3.83;;;1.53;;
25327;SDS011;13279;51.300;12.394;2023-04-24T05:12:02;1.33;;;1.23;;
25327;SDS011;13279;51.300;12.394;2023-04-24T05:14:34;1.30;;;1.20;;
25327;SDS011;13279;51.300;12.394;2023-04-24T05:17:02;1.37;;;1.30;;
25327;SDS011;13279;51.300;12.394;2023-04-24T05:19:31;4.50;;;1.93;;
25327;SDS011;13279;51.300;12.394;2023-04-24T05:22:01;3.30;;;1.90;;
25327;SDS011;13279;51.300;12.394;2023-04-24T05:24:36;5.30;;;2.00;;
25327;SDS011;13279;51.300;12.394;2023-04-24T05:27:32;2.20;;;1.17;;
25327;SDS011;13279;51.300;12.394;2023-04-24T05:30:04;1.33;;;1.27;;
25327;SDS011;13279;51.300;12.394;2023-04-24T05:32:33;4.03;;;2.30;;
25327;SDS011;13279;51.300;12.394;2023-04-24T05:35:00;1.43;;;1.33;;
25327;SDS011;13279;51.300;12.394;2023-04-24T05:37:28;2.80;;;1.40;;
25327;SDS011;13279;51.300;12.394;2023-04-24T05:39:56;3.57;;;1.77;;
25327;SDS011;13279;51.300;12.394;2023-04-24T05:42:24;1.93;;;1.30;;
25327;SDS011;13279;51.300;12.394;2023-04-24T05:44:53;2.37;;;1.40;;
25327;SDS011;13279;51.300;12.394;2023-04-24T05:47:20;1.60;;;1.50;;
25327;SDS011;13279;51.300;12.394;2023-04-24T05:49:49;2.43;;;1.57;;
25327;SDS011;13279;51.300;12.394;2023-04-24T05:52:17;7.33;;;1.30;;
25327;SDS011;13279;51.300;12.394;2023-04-24T05:54:45;2.23;;;1.20;;
25327;SDS011;13279;51.300;12.394;2023-04-24T05:57:18;4.63;;;1.20;;
25327;SDS011;13279;51.300;12.394;2023-04-24T05:59:58;2.00;;;1.33;;
25327;SDS011;13279;51.300;12.394;2023-04-24T06:02:26;1.37;;;1.07;;
25327;SDS011;13279;51.300;12.394;2023-04-24T06:04:59;2.63;;;1.40;;
25327;SDS011;13279;51.300;12.394;2023-04-24T06:07:26;1.40;;;0.93;;
25327;SDS011;13279;51.300;12.394;2023-04-24T06:09:54;1.10;;;1.00;;
25327;SDS011;13279;51.300;12.394;2023-04-24T06:12:22;1.07;;;0.97;;
25327;SDS011;13279;51.300;12.394;2023-04-24T06:14:55;1.67;;;1.40;;
25327;SDS011;13279;51.300;12.394;2023-04-24T06:17:34;1.30;;;1.20;;
25327;SDS011;13279;51.300;12.394;2023-04-24T06:20:03;1.00;;;0.90;;
25327;SDS011;13279;51.300;12.394;2023-04-24T06:22:31;1.90;;;1.20;;
25327;SDS011;13279;51.300;12.394;2023-04-24T06:24:59;2.20;;;1.13;;
25327;SDS011;13279;51.300;12.394;2023-04-24T06:27:26;1.73;;;1.20;;
25327;SDS011;13279;51.300;12.394;2023-04-24T06:29:54;1.07;;;0.97;;
25327;SDS011;13279;51.300;12.394;2023-04-24T06:32:23;3.33;;;1.23;;
25327;SDS011;13279;51.300;12.394;2023-04-24T06:34:51;4.40;;;1.30;;
25327;SDS011;13279;51.300;12.394;2023-04-24T06:37:19;0.87;;;0.87;;
25327;SDS011;13279;51.300;12.394;2023-04-24T06:39:47;2.67;;;1.60;;
25327;SDS011;13279;51.300;12.394;2023-04-24T06:42:14;5.03;;;1.30;;
25327;SDS011;13279;51.300;12.394;2023-04-24T06:44:43;1.87;;;0.80;;
25327;SDS011;13279;51.300;12.394;2023-04-24T06:47:10;3.27;;;1.20;;
25327;SDS011;13279;51.300;12.394;2023-04-24T06:49:41;1.63;;;1.00;;
25327;SDS011;13279;51.300;12.394;2023-04-24T06:52:09;7.00;;;2.53;;
25327;SDS011;13279;51.300;12.394;2023-04-24T06:54:36;1.67;;;0.90;;
25327;SDS011;13279;51.300;12.394;2023-04-24T06:57:04;4.17;;;1.33;;
25327;SDS011;13279;51.300;12.394;2023-04-24T06:59:31;2.60;;;1.30;;
25327;SDS011;13279;51.300;12.394;2023-04-24T07:01:58;1.73;;;1.17;;
25327;SDS011;13279;51.300;12.394;2023-04-24T07:04:26;0.70;;;0.70;;
25327;SDS011;13279;51.300;12.394;2023-04-24T07:06:55;1.20;;;0.97;;
25327;SDS011;13279;51.300;12.394;2023-04-24T07:09:23;4.33;;;1.30;;
25327;SDS011;13279;51.300;12.394;2023-04-24T07:11:52;1.60;;;1.50;;
25327;SDS011;13279;51.300;12.394;2023-04-24T07:14:22;1.23;;;1.10;;
25327;SDS011;13279;51.300;12.394;2023-04-24T07:16:50;0.70;;;0.70;;
25327;SDS011;13279;51.300;12.394;2023-04-24T07:19:17;1.13;;;1.03;;
25327;SDS011;13279;51.300;12.394;2023-04-24T07:21:44;3.93;;;1.10;;
25327;SDS011;13279;51.300;12.394;2023-04-24T07:24:13;1.93;;;1.53;;
25327;SDS011;13279;51.300;12.394;2023-04-24T07:26:41;1.67;;;1.30;;
25327;SDS011;13279;51.300;12.394;2023-04-24T07:29:08;2.13;;;1.20;;
25327;SDS011;13279;51.300;12.394;2023-04-24T07:31:36;5.00;;;1.00;;
25327;SDS011;13279;51.300;12.394;2023-04-24T07:34:03;3.37;;;1.20;;
25327;SDS011;13279;51.300;12.394;2023-04-24T07:36:31;1.43;;;1.23;;
25327;SDS011;13279;51.300;12.394;2023-04-24T07:38:58;1.33;;;1.20;;
25327;SDS011;13279;51.300;12.394;2023-04-24T07:41:27;2.10;;;0.83;;
25327;SDS011;13279;51.300;12.394;2023-04-24T07:43:54;2.73;;;0.77;;
25327;SDS011;13279;51.300;12.394;2023-04-24T07:46:22;1.53;;;1.13;;
25327;SDS011;13279;51.300;12.394;2023-04-24T07:48:50;0.87;;;0.87;;
25327;SDS011;13279;51.300;12.394;2023-04-24T07:51:18;1.20;;;0.90;;
25327;SDS011;13279;51.300;12.394;2023-04-24T07:53:45;2.07;;;1.00;;
25327;SDS011;13279;51.300;12.394;2023-04-24T07:56:12;1.63;;;0.90;;
25327;SDS011;13279;51.300;12.394;2023-04-24T07:58:41;1.67;;;0.80;;
25327;SDS011;13279;51.300;12.394;2023-04-24T08:01:09;0.90;;;0.90;;
25327;SDS011;13279;51.300;12.394;2023-04-24T08:03:36;4.07;;;1.53;;
25327;SDS011;13279;51.300;12.394;2023-04-24T08:06:04;4.00;;;1.10;;
25327;SDS011;13279;51.300;12.394;2023-04-24T08:08:32;4.30;;;0.80;;
25327;SDS011;13279;51.300;12.394;2023-04-24T08:11:00;2.13;;;0.80;;
25327;SDS011;13279;51.300;12.394;2023-04-24T08:13:27;0.80;;;0.80;;
25327;SDS011;13279;51.300;12.394;2023-04-24T08:15:57;3.63;;;0.80;;
25327;SDS011;13279;51.300;12.394;2023-04-24T08:18:24;6.60;;;1.00;;
25327;SDS011;13279;51.300;12.394;2023-04-24T08:20:52;4.93;;;0.90;;
25327;SDS011;13279;51.300;12.394;2023-04-24T08:23:20;2.50;;;0.90;;
25327;SDS011;13279;51.300;12.394;2023-04-24T08:25:47;4.47;;;0.87;;
25327;SDS011;13279;51.300;12.394;2023-04-24T08:28:15;1.43;;;0.70;;
25327;SDS011;13279;51.300;12.394;2023-04-24T08:30:45;2.63;;;0.70;;
25327;SDS011;13279;51.300;12.394;2023-04-24T08:33:14;2.13;;;0.80;;
25327;SDS011;13279;51.300;12.394;2023-04-24T08:35:42;2.40;;;0.90;;
25327;SDS011;13279;51.300;12.394;2023-04-24T08:38:10;0.60;;;0.53;;
25327;SDS011;13279;51.300;12.394;2023-04-24T08:40:38;2.10;;;0.97;;
25327;SDS011;13279;51.300;12.394;2023-04-24T08:43:05;3.27;;;0.77;;
25327;SDS011;13279;51.300;12.394;2023-04-24T08:45:33;0.97;;;0.60;;
25327;SDS011;13279;51.300;12.394;2023-04-24T08:48:01;0.40;;;0.40;;
25327;SDS011;13279;51.300;12.394;2023-04-24T08:50:33;1.70;;;0.90;;
25327;SDS011;13279;51.300;12.394;2023-04-24T08:53:02;0.83;;;0.50;;
25327;SDS011;13279;51.300;12.394;2023-04-24T08:55:30;0.60;;;0.60;;
25327;SDS011;13279;51.300;12.394;2023-04-24T08:57:59;0.57;;;0.50;;
25327;SDS011;13279;51.300;12.394;2023-04-24T09:00:29;1.60;;;0.60;;
25327;SDS011;13279;51.300;12.394;2023-04-24T09:02:56;2.47;;;0.60;;
25327;SDS011;13279;51.300;12.394;2023-04-24T09:05:24;0.80;;;0.63;;
25327;SDS011;13279;51.300;12.394;2023-04-24T09:07:55;1.17;;;0.70;;
25327;SDS011;13279;51.300;12.394;2023-04-24T09:10:23;0.73;;;0.60;;
25327;SDS011;13279;51.300;12.394;2023-04-24T09:12:51;0.93;;;0.50;;
25327;SDS011;13279;51.300;12.394;2023-04-24T09:15:20;0.63;;;0.60;;
25327;SDS011;13279;51.300;12.394;2023-04-24T09:17:48;0.73;;;0.40;;
25327;SDS011;13279;51.300;12.394;2023-04-24T09:20:16;1.27;;;1.17;;
25327;SDS011;13279;51.300;12.394;2023-04-24T09:22:43;3.57;;;0.47;;
25327;SDS011;13279;51.300;12.394;2023-04-24T09:25:13;3.73;;;0.77;;
25327;SDS011;13279;51.300;12.394;2023-04-24T09:27:41;0.47;;;0.40;;
25327;SDS011;13279;51.300;12.394;2023-04-24T09:30:10;2.10;;;0.43;;
25327;SDS011;13279;51.300;12.394;2023-04-24T09:32:39;0.70;;;0.70;;
25327;SDS011;13279;51.300;12.394;2023-04-24T09:35:08;0.60;;;0.60;;
25327;SDS011;13279;51.300;12.394;2023-04-24T09:37:38;0.63;;;0.60;;
25327;SDS011;13279;51.300;12.394;2023-04-24T09:42:39;3.30;;;0.73;;
25327;SDS011;13279;51.300;12.394;2023-04-24T09:45:10;0.60;;;0.60;;
25327;SDS011;13279;51.300;12.394;2023-04-24T09:47:38;1.67;;;0.73;;
25327;SDS011;13279;51.300;12.394;2023-04-24T09:50:09;2.50;;;0.77;;
25327;SDS011;13279;51.300;12.394;2023-04-24T09:52:45;1.27;;;0.60;;
25327;SDS011;13279;51.300;12.394;2023-04-24T09:55:15;0.70;;;0.57;;
25327;SDS011;13279;51.300;12.394;2023-04-24T09:57:50;0.73;;;0.73;;
25327;SDS011;13279;51.300;12.394;2023-04-24T10:00:21;0.63;;;0.50;;
25327;SDS011;13279;51.300;12.394;2023-04-24T10:02:56;2.30;;;0.60;;
25327;SDS011;13279;51.300;12.394;2023-04-24T10:05:25;0.40;;;0.40;;
25327;SDS011;13279;51.300;12.394;2023-04-24T10:07:56;2.97;;;0.73;;
25327;SDS011;13279;51.300;12.394;2023-04-24T10:10:25;0.60;;;0.60;;
25327;SDS011;13279;51.300;12.394;2023-04-24T10:12:54;2.27;;;0.60;;
25327;SDS011;13279;51.300;12.394;2023-04-24T10:15:22;0.57;;;0.57;;
25327;SDS011;13279;51.300;12.394;2023-04-24T10:17:51;0.60;;;0.60;;
25327;SDS011;13279;51.300;12.394;2023-04-24T10:20:19;5.87;;;0.93;;
25327;SDS011;13279;51.300;12.394;2023-04-24T10:23:04;1.90;;;0.50;;
25327;SDS011;13279;51.300;12.394;2023-04-24T10:25:41;6.27;;;0.90;;
25327;SDS011;13279;51.300;12.394;2023-04-24T10:28:17;0.80;;;0.80;;
25327;SDS011;13279;51.300;12.394;2023-04-24T10:30:46;1.27;;;0.63;;
25327;SDS011;13279;51.300;12.394;2023-04-24T10:33:17;4.90;;;1.43;;
25327;SDS011;13279;51.300;12.394;2023-04-24T10:35:46;0.60;;;0.60;;
25327;SDS011;13279;51.300;12.394;2023-04-24T10:38:18;0.67;;;0.63;;
25327;SDS011;13279;51.300;12.394;2023-04-24T10:40:54;8.13;;;0.97;;
25327;SDS011;13279;51.300;12.394;2023-04-24T10:43:35;1.20;;;0.90;;
25327;SDS011;13279;51.300;12.394;2023-04-24T10:46:05;2.87;;;0.70;;
25327;SDS011;13279;51.300;12.394;2023-04-24T10:48:33;1.60;;;0.77;;
25327;SDS011;13279;51.300;12.394;2023-04-24T10:51:01;1.13;;;0.50;;
25327;SDS011;13279;51.300;12.394;2023-04-24T10:53:29;1.50;;;0.70;;
25327;SDS011;13279;51.300;12.394;2023-04-24T10:55:58;0.50;;;0.50;;
25327;SDS011;13279;51.300;12.394;2023-04-24T10:58:40;1.50;;;0.80;;
25327;SDS011;13279;51.300;12.394;2023-04-24T11:01:22;2.43;;;0.63;;
25327;SDS011;13279;51.300;12.394;2023-04-24T11:03:54;1.90;;;0.63;;
25327;SDS011;13279;51.300;12.394;2023-04-24T11:06:28;0.70;;;0.70;;
25327;SDS011;13279;51.300;12.394;2023-04-24T11:08:59;1.27;;;0.70;;
25327;SDS011;13279;51.300;12.394;2023-04-24T11:11:31;1.10;;;0.50;;
25327;SDS011;13279;51.300;12.394;2023-04-24T11:14:06;1.70;;;0.40;;
25327;SDS011;13279;51.300;12.394;2023-04-24T11:16:36;2.80;;;0.80;;
25327;SDS011;13279;51.300;12.394;2023-04-24T11:19:18;0.53;;;0.53;;
25327;SDS011;13279;51.300;12.394;2023-04-24T11:21:54;0.77;;;0.77;;
25327;SDS011;13279;51.300;12.394;2023-04-24T11:24:29;10.40;;;1.43;;
25327;SDS011;13279;51.300;12.394;2023-04-24T11:26:58;0.97;;;0.90;;
25327;SDS011;13279;51.300;12.394;2023-04-24T11:29:40;1.33;;;0.90;;
25327;SDS011;13279;51.300;12.394;2023-04-24T11:32:17;4.73;;;0.90;;
25327;SDS011;13279;51.300;12.394;2023-04-24T11:34:46;0.80;;;0.60;;
25327;SDS011;13279;51.300;12.394;2023-04-24T11:37:14;1.27;;;0.80;;
25327;SDS011;13279;51.300;12.394;2023-04-24T11:39:42;4.27;;;1.10;;
25327;SDS011;13279;51.300;12.394;2023-04-24T11:42:09;0.67;;;0.67;;
25327;SDS011;13279;51.300;12.394;2023-04-24T11:44:37;0.80;;;0.70;;
25327;SDS011;13279;51.300;12.394;2023-04-24T11:47:08;1.03;;;1.00;;
25327;SDS011;13279;51.300;12.394;2023-04-24T11:49:36;5.17;;;1.00;;
25327;SDS011;13279;51.300;12.394;2023-04-24T11:52:04;0.73;;;0.70;;
25327;SDS011;13279;51.300;12.394;2023-04-24T11:54:31;4.17;;;0.90;;
25327;SDS011;13279;51.300;12.394;2023-04-24T11:58:05;0.80;;;0.80;;
25327;SDS011;13279;51.300;12.394;2023-04-24T12:00:41;0.93;;;0.73;;
25327;SDS011;13279;51.300;12.394;2023-04-24T12:03:08;1.57;;;0.80;;
25327;SDS011;13279;51.300;12.394;2023-04-24T12:05:37;0.83;;;0.83;;
25327;SDS011;13279;51.300;12.394;2023-04-24T12:08:05;0.80;;;0.80;;
25327;SDS011;13279;51.300;12.394;2023-04-24T12:10:33;1.30;;;0.70;;
25327;SDS011;13279;51.300;12.394;2023-04-24T12:13:01;1.63;;;0.90;;
25327;SDS011;13279;51.300;12.394;2023-04-24T12:15:29;3.00;;;1.07;;
25327;SDS011;13279;51.300;12.394;2023-04-24T12:18:00;0.70;;;0.70;;
25327;SDS011;13279;51.300;12.394;2023-04-24T12:20:28;1.10;;;0.67;;
25327;SDS011;13279;51.300;12.394;2023-04-24T12:23:00;0.70;;;0.70;;
25327;SDS011;13279;51.300;12.394;2023-04-24T12:25:30;1.50;;;0.77;;
25327;SDS011;13279;51.300;12.394;2023-04-24T12:28:08;0.97;;;0.97;;
25327;SDS011;13279;51.300;12.394;2023-04-24T12:30:39;2.50;;;1.00;;
25327;SDS011;13279;51.300;12.394;2023-04-24T12:33:10;2.60;;;0.80;;
25327;SDS011;13279;51.300;12.394;2023-04-24T12:35:39;1.27;;;1.17;;
25327;SDS011;13279;51.300;12.394;2023-04-24T12:38:08;2.37;;;0.93;;
25327;SDS011;13279;51.300;12.394;2023-04-24T12:40:37;1.50;;;1.10;;
25327;SDS011;13279;51.300;12.394;2023-04-24T12:43:12;0.90;;;0.90;;
25327;SDS011;13279;51.300;12.394;2023-04-24T12:45:42;0.90;;;0.80;;
25327;SDS011;13279;51.300;12.394;2023-04-24T12:48:11;2.23;;;1.13;;
25327;SDS011;13279;51.300;12.394;2023-04-24T12:50:40;1.60;;;1.20;;
25327;SDS011;13279;51.300;12.394;2023-04-24T12:53:08;2.07;;;0.90;;
25327;SDS011;13279;51.300;12.394;2023-04-24T12:55:36;1.33;;;1.00;;
25327;SDS011;13279;51.300;12.394;2023-04-24T12:58:04;1.47;;;1.07;;
25327;SDS011;13279;51.300;12.394;2023-04-24T13:00:32;3.47;;;1.10;;
25327;SDS011;13279;51.300;12.394;2023-04-24T13:03:02;0.87;;;0.87;;
25327;SDS011;13279;51.300;12.394;2023-04-24T13:05:31;4.10;;;1.37;;
25327;SDS011;13279;51.300;12.394;2023-04-24T13:07:59;1.10;;;1.10;;
25327;SDS011;13279;51.300;12.394;2023-04-24T13:10:28;0.77;;;0.77;;
25327;SDS011;13279;51.300;12.394;2023-04-24T13:13:02;3.03;;;1.20;;
25327;SDS011;13279;51.300;12.394;2023-04-24T13:15:36;2.00;;;1.00;;
25327;SDS011;13279;51.300;12.394;2023-04-24T13:18:12;5.70;;;1.10;;
25327;SDS011;13279;51.300;12.394;2023-04-24T13:20:42;2.20;;;0.90;;
25327;SDS011;13279;51.300;12.394;2023-04-24T13:23:19;1.00;;;0.90;;
25327;SDS011;13279;51.300;12.394;2023-04-24T13:25:52;1.10;;;1.10;;
25327;SDS011;13279;51.300;12.394;2023-04-24T13:28:36;1.20;;;1.20;;
25327;SDS011;13279;51.300;12.394;2023-04-24T13:31:11;1.20;;;1.10;;
25327;SDS011;13279;51.300;12.394;2023-04-24T13:33:45;1.37;;;1.27;;
25327;SDS011;13279;51.300;12.394;2023-04-24T13:36:26;1.63;;;0.90;;
25327;SDS011;13279;51.300;12.394;2023-04-24T13:38:58;1.10;;;1.10;;
25327;SDS011;13279;51.300;12.394;2023-04-24T13:41:33;5.40;;;1.03;;
25327;SDS011;13279;51.300;12.394;2023-04-24T13:44:01;2.53;;;0.90;;
25327;SDS011;13279;51.300;12.394;2023-04-24T13:46:30;1.67;;;0.80;;
25327;SDS011;13279;51.300;12.394;2023-04-24T13:48:57;0.90;;;0.90;;
25327;SDS011;13279;51.300;12.394;2023-04-24T13:51:27;1.97;;;0.70;;
25327;SDS011;13279;51.300;12.394;2023-04-24T13:53:55;1.77;;;1.10;;
25327;SDS011;13279;51.300;12.394;2023-04-24T13:56:23;1.70;;;1.00;;
25327;SDS011;13279;51.300;12.394;2023-04-24T13:58:51;1.27;;;0.90;;
25327;SDS011;13279;51.300;12.394;2023-04-24T14:01:21;3.23;;;1.00;;
25327;SDS011;13279;51.300;12.394;2023-04-24T14:03:51;1.80;;;1.10;;
25327;SDS011;13279;51.300;12.394;2023-04-24T14:06:18;1.10;;;0.70;;
25327;SDS011;13279;51.300;12.394;2023-04-24T14:08:47;1.00;;;0.90;;
25327;SDS011;13279;51.300;12.394;2023-04-24T14:11:15;4.13;;;0.77;;
25327;SDS011;13279;51.300;12.394;2023-04-24T14:13:44;4.10;;;0.90;;
25327;SDS011;13279;51.300;12.394;2023-04-24T14:16:11;4.07;;;0.70;;
25327;SDS011;13279;51.300;12.394;2023-04-24T14:18:39;0.70;;;0.50;;
25327;SDS011;13279;51.300;12.394;2023-04-24T14:21:07;0.70;;;0.70;;
25327;SDS011;13279;51.300;12.394;2023-04-24T14:23:34;0.70;;;0.70;;
25327;SDS011;13279;51.300;12.394;2023-04-24T14:26:03;3.60;;;0.63;;
25327;SDS011;13279;51.300;12.394;2023-04-24T14:28:33;0.93;;;0.60;;
25327;SDS011;13279;51.300;12.394;2023-04-24T14:31:01;0.80;;;0.80;;
25327;SDS011;13279;51.300;12.394;2023-04-24T14:33:29;2.20;;;0.80;;
25327;SDS011;13279;51.300;12.394;2023-04-24T14:35:56;1.30;;;0.67;;
25327;SDS011;13279;51.300;12.394;2023-04-24T14:38:24;1.67;;;1.00;;
25327;SDS011;13279;51.300;12.394;2023-04-24T14:40:51;3.07;;;0.60;;
25327;SDS011;13279;51.300;12.394;2023-04-24T14:43:22;3.77;;;1.10;;
25327;SDS011;13279;51.300;12.394;2023-04-24T14:45:49;8.77;;;0.70;;
25327;SDS011;13279;51.300;12.394;2023-04-24T14:48:17;0.50;;;0.50;;
25327;SDS011;13279;51.300;12.394;2023-04-24T14:50:44;1.93;;;0.70;;